< < Back
Terminal Aerodrome Forecast


Current Version              Previous Versions:   1  2  3  4  5  6  7  8  9  

Terminal Aerodrome Forecast

995
FTUS42 KGSP 292320
TAFHKY
TAF
KHKY 292320Z 2900/2924 21005KT P6SM FEW250
     FM290400 28003KT P6SM FEW250
     FM292100 29005KT P6SM SCT060 PROB30 2921/2924 4SM -TSRA
      BKN060CB=



Latest METAR

708
SAUS70 KWBC 292300 RRR
MTRHKY
METAR KHKY 292253Z AUTO VRB03KT 10SM SCT110 27/21 A2994 RMK AO2 RAB00E34
SLP118 P0000 T02720206


USA.gov is the U.S. government's official web portal to all federal, state and local government web resources and services.